Time;durP1;ratioP1;P1;durP2;ratioP2;P2;SDS_P1;SDS_P2;PMS_P1;PMS_P2;Temp;Humidity;BMP_temperature;BMP_pressure;BME280_temperature;BME280_humidity;BME280_pressure;Samples;Min_cycle;Max_cycle;Signal;HPM_P1;HPM_P2
2021/03/14 00:00:27;;;;;;;4.50;0.98;;;;;11.60;99915.00;;;;5075550;28;20228;-79
2021/03/14 00:02:54;;;;;;;5.32;0.90;;;;;11.60;99921.00;;;;5074739;28;20205;-79
2021/03/14 00:05:21;;;;;;;4.10;0.90;;;;;11.60;99927.00;;;;5073653;28;20190;-79
2021/03/14 00:07:48;;;;;;;3.33;0.80;;;;;11.60;99928.00;;;;5073165;28;20706;-79
2021/03/14 00:10:16;;;;;;;5.75;0.70;;;;;11.60;99925.00;;;;5074816;28;20203;-79
2021/03/14 00:12:43;;;;;;;2.53;0.98;;;;;11.70;99932.00;;;;5073662;28;20656;-79
2021/03/14 00:15:11;;;;;;;3.17;0.60;;;;;11.70;99936.00;;;;5074942;28;20234;-79
2021/03/14 00:17:37;;;;;;;4.78;0.70;;;;;11.70;99941.00;;;;5073256;28;20393;-79
2021/03/14 00:20:06;;;;;;;2.95;0.70;;;;;11.70;99933.00;;;;5074331;28;20194;-80
2021/03/14 00:22:33;;;;;;;6.72;1.23;;;;;11.80;99944.00;;;;5076583;28;20194;-80
2021/03/14 00:25:00;;;;;;;2.40;0.43;;;;;11.80;99945.00;;;;5081900;28;20213;-79
2021/03/14 00:27:28;;;;;;;4.10;1.17;;;;;11.70;99954.00;;;;5086827;28;20191;-79
2021/03/14 00:29:54;;;;;;;3.75;0.85;;;;;11.80;99954.00;;;;5085931;28;20222;-79
2021/03/14 00:32:21;;;;;;;10.77;1.23;;;;;11.80;99950.00;;;;5077030;28;20251;-79
2021/03/14 00:34:48;;;;;;;6.10;1.05;;;;;11.80;99961.00;;;;5083441;28;20699;-79
2021/03/14 00:37:15;;;;;;;7.43;0.63;;;;;11.80;99962.00;;;;5084033;28;20198;-78
2021/03/14 00:39:42;;;;;;;4.45;0.80;;;;;11.80;99970.00;;;;5075755;28;20202;-79
2021/03/14 00:42:09;;;;;;;2.58;0.82;;;;;11.80;99973.00;;;;5082477;28;20668;-79
2021/03/14 00:44:36;;;;;;;3.15;1.25;;;;;11.80;99971.00;;;;5083062;28;20690;-79
2021/03/14 00:47:04;;;;;;;3.38;0.82;;;;;11.80;99976.00;;;;5071067;28;20210;-79
2021/03/14 00:49:30;;;;;;;4.32;0.70;;;;;11.80;99973.00;;;;5081871;28;20241;-79
2021/03/14 00:51:57;;;;;;;1.85;0.45;;;;;11.80;99983.00;;;;5073262;28;20198;-79
2021/03/14 00:54:24;;;;;;;3.85;0.60;;;;;11.80;99987.00;;;;5067890;28;20219;-79
2021/03/14 00:56:51;;;;;;;3.53;0.55;;;;;11.80;99989.00;;;;5076288;28;20206;-79
2021/03/14 00:59:17;;;;;;;2.35;0.98;;;;;11.80;100001.00;;;;5078931;28;20684;-79
2021/03/14 01:01:45;;;;;;;3.15;0.85;;;;;11.80;100001.00;;;;5089447;28;20202;-79
2021/03/14 01:04:12;;;;;;;3.47;0.50;;;;;11.80;100005.00;;;;5077691;28;20195;-79
2021/03/14 01:06:38;;;;;;;2.28;0.85;;;;;11.80;100005.00;;;;5076691;28;20195;-79
2021/03/14 01:09:06;;;;;;;6.32;1.05;;;;;11.80;100007.00;;;;5077684;28;20201;-79
2021/03/14 01:11:32;;;;;;;4.70;1.33;;;;;11.80;100012.00;;;;5076790;28;20205;-79
2021/03/14 01:13:59;;;;;;;4.25;0.70;;;;;11.90;100015.00;;;;5079398;28;20222;-79
2021/03/14 01:16:26;;;;;;;2.95;0.90;;;;;11.90;100019.00;;;;5076489;28;20186;-79
2021/03/14 01:18:55;;;;;;;3.40;1.02;;;;;11.90;100023.00;;;;5089785;28;20256;-79
2021/03/14 01:21:22;;;;;;;1.42;0.32;;;;;11.90;100019.00;;;;5084830;28;20726;-79
2021/03/14 01:23:48;;;;;;;3.60;1.13;;;;;11.90;100017.00;;;;5086133;28;20642;-80
2021/03/14 01:26:16;;;;;;;6.28;0.73;;;;;11.90;100022.00;;;;5074275;28;20183;-79
2021/03/14 01:28:43;;;;;;;1.40;0.60;;;;;11.90;100021.00;;;;5088683;28;20545;-79
2021/03/14 01:31:10;;;;;;;6.43;1.23;;;;;11.90;100026.00;;;;5084006;28;20194;-79
2021/03/14 01:33:37;;;;;;;5.13;1.13;;;;;11.90;100028.00;;;;5085085;28;20198;-79
2021/03/14 01:36:05;;;;;;;3.55;0.60;;;;;11.90;100026.00;;;;5083647;28;20195;-79
2021/03/14 01:38:31;;;;;;;2.88;0.55;;;;;11.90;100033.00;;;;5074120;28;20693;-79
2021/03/14 01:40:58;;;;;;;2.63;0.80;;;;;12.00;100036.00;;;;5083625;28;20660;-79
2021/03/14 01:43:25;;;;;;;1.60;0.43;;;;;12.00;100039.00;;;;5076198;28;20195;-79
2021/03/14 01:45:52;;;;;;;4.05;0.70;;;;;12.00;100038.00;;;;5073939;28;20229;-79
2021/03/14 01:48:23;;;;;;;3.47;0.88;;;;;12.00;100042.00;;;;5084215;28;20233;-79
2021/03/14 01:50:50;;;;;;;3.50;0.80;;;;;12.00;100044.00;;;;5087861;28;20266;-79
2021/03/14 01:53:18;;;;;;;4.28;0.60;;;;;12.00;100052.00;;;;5076795;28;20202;-79
2021/03/14 01:55:45;;;;;;;2.72;0.70;;;;;12.00;100050.00;;;;5070773;28;20230;-79
2021/03/14 01:58:13;;;;;;;2.15;0.30;;;;;12.00;100058.00;;;;5084388;28;20225;-79
2021/03/14 02:00:40;;;;;;;2.63;0.70;;;;;11.90;100065.00;;;;5069980;28;20195;-79
2021/03/14 02:03:07;;;;;;;3.50;0.50;;;;;11.90;100068.00;;;;5075394;28;20191;-79
2021/03/14 02:05:34;;;;;;;2.22;0.70;;;;;11.90;100065.00;;;;5085042;28;20206;-79
2021/03/14 02:08:01;;;;;;;4.53;1.02;;;;;11.90;100076.00;;;;5070568;28;20209;-79
2021/03/14 02:10:31;;;;;;;1.42;0.40;;;;;11.90;100083.00;;;;5088446;28;20247;-79
2021/03/14 02:13:01;;;;;;;3.53;0.93;;;;;11.80;100073.00;;;;5079952;28;20187;-79
2021/03/14 02:15:29;;;;;;;8.52;1.13;;;;;11.80;100078.00;;;;5069938;28;20223;-79
2021/03/14 02:17:58;;;;;;;3.08;0.60;;;;;11.80;100078.00;;;;5080930;28;20194;-79
2021/03/14 02:20:27;;;;;;;3.15;0.73;;;;;11.80;100084.00;;;;5089821;28;20202;-79
2021/03/14 02:23:04;;;;;;;4.57;1.15;;;;;11.80;100087.00;;;;5085710;28;20575;-79
2021/03/14 02:25:35;;;;;;;3.10;0.77;;;;;11.80;100094.00;;;;5069999;28;20292;-79
2021/03/14 02:28:04;;;;;;;8.90;1.13;;;;;11.80;100099.00;;;;5081672;28;20308;-79
2021/03/14 02:30:32;;;;;;;4.55;1.08;;;;;11.80;100099.00;;;;5069487;28;20252;-79
2021/03/14 02:32:59;;;;;;;3.95;0.88;;;;;11.80;100102.00;;;;5075912;28;20652;-79
2021/03/14 02:35:27;;;;;;;5.15;1.05;;;;;11.70;100103.00;;;;5082184;28;20210;-79
2021/03/14 02:37:55;;;;;;;4.50;1.00;;;;;11.70;100103.00;;;;5074538;28;20191;-79
2021/03/14 02:40:23;;;;;;;5.60;0.68;;;;;11.70;100103.00;;;;5086552;28;20237;-79
2021/03/14 02:42:51;;;;;;;2.65;0.38;;;;;11.70;100109.00;;;;5070833;28;20199;-79
2021/03/14 02:45:19;;;;;;;3.78;0.90;;;;;11.70;100120.00;;;;5072413;28;20203;-79
2021/03/14 02:47:46;;;;;;;1.48;0.43;;;;;11.70;100117.00;;;;5077465;28;20218;-79
2021/03/14 02:50:16;;;;;;;3.00;0.47;;;;;11.60;100125.00;;;;5089534;28;20570;-79
2021/03/14 02:52:44;;;;;;;3.03;0.65;;;;;11.60;100124.00;;;;5085411;28;20186;-79
2021/03/14 02:55:12;;;;;;;4.40;0.98;;;;;11.60;100129.00;;;;5081742;28;20229;-79
2021/03/14 02:57:40;;;;;;;2.33;0.60;;;;;11.50;100131.00;;;;5088216;28;20239;-79
2021/03/14 03:00:09;;;;;;;3.40;0.70;;;;;11.50;100137.00;;;;5088147;28;20754;-79
2021/03/14 03:02:37;;;;;;;4.05;0.90;;;;;11.50;100136.00;;;;5086762;28;20201;-79
2021/03/14 03:05:06;;;;;;;2.40;0.80;;;;;11.50;100149.00;;;;5071005;28;20198;-79
2021/03/14 03:07:33;;;;;;;3.42;0.70;;;;;11.50;100153.00;;;;5077288;28;20195;-79
2021/03/14 03:10:00;;;;;;;2.78;0.93;;;;;11.50;100159.00;;;;5088191;28;20205;-79
2021/03/14 03:12:27;;;;;;;2.33;0.45;;;;;11.50;100159.00;;;;5085093;28;20202;-79
2021/03/14 03:14:56;;;;;;;2.15;0.65;;;;;11.40;100164.00;;;;5082289;28;20284;-79
2021/03/14 03:17:24;;;;;;;2.75;0.60;;;;;11.40;100166.00;;;;5073664;28;20195;-79
2021/03/14 03:19:53;;;;;;;5.63;0.90;;;;;11.40;100165.00;;;;5081066;28;20190;-79
2021/03/14 03:22:21;;;;;;;4.75;1.05;;;;;11.40;100170.00;;;;5078830;28;20209;-79
2021/03/14 03:24:48;;;;;;;3.05;0.90;;;;;11.40;100167.00;;;;5081020;28;20206;-80
2021/03/14 03:27:15;;;;;;;2.40;0.40;;;;;11.40;100168.00;;;;5072714;28;20268;-79
2021/03/14 03:29:42;;;;;;;3.53;0.73;;;;;11.40;100171.00;;;;5080269;28;20225;-79
2021/03/14 03:32:09;;;;;;;2.03;0.35;;;;;11.40;100170.00;;;;5083064;28;20195;-79
2021/03/14 03:34:35;;;;;;;4.15;0.43;;;;;11.40;100179.00;;;;5084654;28;20218;-79
2021/03/14 03:37:03;;;;;;;4.18;0.73;;;;;11.30;100179.00;;;;5076381;28;20199;-79
2021/03/14 03:39:30;;;;;;;8.30;0.52;;;;;11.30;100177.00;;;;5078574;28;20568;-79
2021/03/14 03:42:02;;;;;;;3.75;0.43;;;;;11.30;100181.00;;;;5077418;28;20203;-79
2021/03/14 03:44:33;;;;;;;2.10;0.70;;;;;11.30;100189.00;;;;5079130;28;20198;-79
2021/03/14 03:47:01;;;;;;;2.22;0.47;;;;;11.30;100184.00;;;;5087232;28;20298;-79
2021/03/14 03:49:31;;;;;;;8.23;1.25;;;;;11.30;100191.00;;;;5079320;28;20253;-79
2021/03/14 03:52:00;;;;;;;2.97;0.90;;;;;11.30;100183.00;;;;5080438;28;20195;-79
2021/03/14 03:54:29;;;;;;;4.38;0.68;;;;;11.30;100197.00;;;;5085254;28;20218;-79
2021/03/14 03:56:57;;;;;;;6.60;1.38;;;;;11.30;100197.00;;;;5077239;28;20191;-79
2021/03/14 03:59:27;;;;;;;3.30;0.52;;;;;11.30;100201.00;;;;5078545;28;20207;-79
2021/03/14 04:01:56;;;;;;;2.08;0.90;;;;;11.30;100201.00;;;;5074600;28;20190;-79
2021/03/14 04:04:24;;;;;;;2.33;0.45;;;;;11.30;100214.00;;;;5075490;28;20198;-79
2021/03/14 04:06:52;;;;;;;2.92;0.63;;;;;11.30;100212.00;;;;5085557;28;20260;-79
2021/03/14 04:09:20;;;;;;;2.08;0.57;;;;;11.30;100213.00;;;;5081422;28;20232;-79
2021/03/14 04:11:48;;;;;;;7.25;0.60;;;;;11.40;100214.00;;;;5071403;28;20227;-79
2021/03/14 04:14:18;;;;;;;4.05;0.52;;;;;11.40;100219.00;;;;5072393;28;20217;-79
2021/03/14 04:16:45;;;;;;;4.60;0.50;;;;;11.40;100221.00;;;;5086758;28;20198;-79
2021/03/14 04:19:15;;;;;;;6.70;0.70;;;;;11.40;100217.00;;;;5076719;28;20213;-79
2021/03/14 04:21:42;;;;;;;4.22;1.15;;;;;11.40;100222.00;;;;5083676;28;20194;-79
2021/03/14 04:24:11;;;;;;;5.68;0.80;;;;;11.50;100224.00;;;;5081293;28;20202;-79
2021/03/14 04:26:41;;;;;;;3.38;0.80;;;;;11.50;100229.00;;;;5082807;28;20207;-78
2021/03/14 04:29:09;;;;;;;5.53;0.60;;;;;11.50;100228.00;;;;5068151;28;20211;-78
2021/03/14 04:31:37;;;;;;;5.45;1.02;;;;;11.50;100237.00;;;;5077171;28;20217;-78
2021/03/14 04:34:04;;;;;;;3.70;0.82;;;;;11.50;100231.00;;;;5086942;28;20198;-78
2021/03/14 04:36:31;;;;;;;2.78;0.70;;;;;11.50;100241.00;;;;5080220;28;20194;-78
2021/03/14 04:38:58;;;;;;;2.78;0.90;;;;;11.50;100253.00;;;;5089672;28;20209;-78
2021/03/14 04:41:25;;;;;;;4.68;1.65;;;;;11.60;100265.00;;;;5078553;28;21015;-78
2021/03/14 04:43:52;;;;;;;3.70;1.13;;;;;11.60;100269.00;;;;5084352;28;20249;-78
2021/03/14 04:46:20;;;;;;;4.90;0.65;;;;;11.60;100273.00;;;;5090142;28;20202;-78
2021/03/14 04:48:47;;;;;;;4.45;0.93;;;;;11.60;100287.00;;;;5082194;28;20231;-78
2021/03/14 04:51:14;;;;;;;3.15;0.60;;;;;11.50;100287.00;;;;5077426;28;20199;-79
2021/03/14 04:53:42;;;;;;;1.42;0.70;;;;;11.50;100288.00;;;;5086677;28;20504;-78
2021/03/14 04:56:10;;;;;;;2.30;0.40;;;;;11.50;100281.00;;;;5085606;28;20252;-79
2021/03/14 04:58:39;;;;;;;1.35;0.25;;;;;11.40;100297.00;;;;5084643;28;20190;-79
2021/03/14 05:01:06;;;;;;;0.93;0.60;;;;;11.40;100301.00;;;;5090592;28;20194;-79
2021/03/14 05:03:35;;;;;;;2.28;0.40;;;;;11.40;100295.00;;;;5089990;28;20203;-79
2021/03/14 05:06:02;;;;;;;1.45;0.60;;;;;11.30;100296.00;;;;5076392;28;20252;-79
2021/03/14 05:08:29;;;;;;;2.67;1.00;;;;;11.30;100307.00;;;;5086718;28;20198;-79
2021/03/14 05:10:56;;;;;;;0.73;0.22;;;;;11.30;100301.00;;;;5079409;28;20195;-79
2021/03/14 05:13:23;;;;;;;3.08;1.08;;;;;11.30;100301.00;;;;5090961;28;20194;-79
2021/03/14 05:15:52;;;;;;;2.30;0.70;;;;;11.30;100305.00;;;;5091263;28;20230;-79
2021/03/14 05:18:19;;;;;;;1.85;0.50;;;;;11.30;100309.00;;;;5086317;28;20285;-79
2021/03/14 05:20:47;;;;;;;1.40;0.45;;;;;11.30;100310.00;;;;5078940;28;20205;-79
2021/03/14 05:23:15;;;;;;;1.20;0.50;;;;;11.30;100334.00;;;;5072000;28;20198;-79
2021/03/14 05:25:43;;;;;;;2.00;0.50;;;;;11.30;100334.00;;;;5079094;28;20198;-79
2021/03/14 05:28:12;;;;;;;2.50;0.50;;;;;11.30;100334.00;;;;5084798;28;20202;-79
2021/03/14 05:30:39;;;;;;;2.40;1.27;;;;;11.30;100332.00;;;;5070587;28;20218;-79
2021/03/14 05:33:06;;;;;;;1.60;0.43;;;;;11.30;100335.00;;;;5078024;28;20808;-79
2021/03/14 05:35:33;;;;;;;3.13;0.52;;;;;11.30;100335.00;;;;5087840;28;20217;-79
2021/03/14 05:38:01;;;;;;;1.08;0.50;;;;;11.30;100343.00;;;;5090192;28;20243;-79
2021/03/14 05:40:29;;;;;;;0.70;0.40;;;;;11.20;100345.00;;;;5082297;28;20199;-79
2021/03/14 05:42:58;;;;;;;3.92;0.70;;;;;11.20;100348.00;;;;5086349;28;20198;-79
2021/03/14 05:45:26;;;;;;;3.40;0.47;;;;;11.30;100356.00;;;;5074704;28;20213;-78
2021/03/14 05:47:53;;;;;;;3.67;0.75;;;;;11.30;100346.00;;;;5074724;28;20242;-79
2021/03/14 05:50:21;;;;;;;0.63;0.30;;;;;11.20;100351.00;;;;5081423;28;21219;-78
2021/03/14 05:52:50;;;;;;;3.10;0.70;;;;;11.20;100356.00;;;;5088959;28;20683;-78
2021/03/14 05:55:19;;;;;;;1.35;0.50;;;;;11.20;100359.00;;;;5078176;28;20214;-78
2021/03/14 05:57:48;;;;;;;1.50;0.68;;;;;11.20;100367.00;;;;5084375;28;20203;-78
2021/03/14 06:00:23;;;;;;;3.50;0.90;;;;;11.20;100366.00;;;;5089770;28;20279;-80
2021/03/14 06:02:52;;;;;;;1.85;0.70;;;;;11.20;100375.00;;;;5080911;28;20215;-80
2021/03/14 06:05:20;;;;;;;1.52;0.47;;;;;11.20;100386.00;;;;5088099;28;20206;-80
2021/03/14 06:07:46;;;;;;;1.77;0.50;;;;;11.30;100394.00;;;;5079472;28;20199;-80
2021/03/14 06:10:16;;;;;;;1.85;0.50;;;;;11.30;100382.00;;;;5086292;28;20653;-79
2021/03/14 06:12:44;;;;;;;2.55;0.35;;;;;11.30;100388.00;;;;5087319;28;20247;-80
2021/03/14 06:15:12;;;;;;;2.47;0.60;;;;;11.30;100391.00;;;;5084468;28;20580;-80
2021/03/14 06:17:38;;;;;;;1.55;0.70;;;;;11.40;100395.00;;;;5074340;28;20218;-80
2021/03/14 06:20:07;;;;;;;2.25;0.98;;;;;11.40;100399.00;;;;5084602;28;20199;-81
2021/03/14 06:22:34;;;;;;;2.92;0.60;;;;;11.40;100402.00;;;;5084364;28;20201;-81
2021/03/14 06:25:01;;;;;;;0.93;0.47;;;;;11.40;100407.00;;;;5084990;28;20572;-79
2021/03/14 06:27:51;;;;;;;1.60;0.40;;;;;11.40;100412.00;;;;5084642;28;20186;-79
2021/03/14 06:30:19;;;;;;;2.45;0.60;;;;;11.40;100420.00;;;;5083866;28;20250;-79
2021/03/14 06:33:01;;;;;;;3.38;0.63;;;;;11.40;100426.00;;;;5082344;28;20561;-79
2021/03/14 06:35:38;;;;;;;1.65;0.60;;;;;11.40;100429.00;;;;5088987;28;20298;-79
2021/03/14 06:38:21;;;;;;;1.65;0.70;;;;;11.40;100424.00;;;;5083495;28;20186;-79
2021/03/14 06:40:50;;;;;;;1.45;0.75;;;;;11.50;100429.00;;;;5081541;28;20191;-79
2021/03/14 06:43:18;;;;;;;0.95;0.50;;;;;11.50;100438.00;;;;5079266;28;20199;-79
2021/03/14 06:45:46;;;;;;;2.72;0.90;;;;;11.60;100452.00;;;;5084141;28;20210;-79
2021/03/14 06:48:23;;;;;;;1.90;0.82;;;;;11.60;100450.00;;;;5082006;28;20218;-80
2021/03/14 06:50:50;;;;;;;3.25;1.02;;;;;11.60;100463.00;;;;5080150;28;20193;-78
2021/03/14 06:53:19;;;;;;;1.67;0.70;;;;;11.60;100462.00;;;;5083095;28;20667;-78
2021/03/14 06:55:47;;;;;;;0.98;0.50;;;;;11.70;100469.00;;;;5079272;28;20231;-79
2021/03/14 06:58:22;;;;;;;1.90;0.73;;;;;11.60;100469.00;;;;5074959;28;20259;-79
2021/03/14 07:01:14;;;;;;;3.83;0.63;;;;;11.70;100465.00;;;;5078940;28;20186;-80
2021/03/14 07:03:44;;;;;;;2.33;0.95;;;;;11.80;100476.00;;;;5077711;28;20216;-79
2021/03/14 07:06:22;;;;;;;5.10;0.65;;;;;11.80;100477.00;;;;5080375;28;20725;-79
2021/03/14 07:08:51;;;;;;;2.90;0.85;;;;;11.90;100491.00;;;;5078680;28;20225;-79
2021/03/14 07:11:35;;;;;;;0.80;0.60;;;;;11.80;100486.00;;;;5083514;28;20205;-79
2021/03/14 07:14:04;;;;;;;1.55;0.55;;;;;11.90;100485.00;;;;5082688;28;20244;-79
2021/03/14 07:16:45;;;;;;;2.92;0.93;;;;;11.90;100496.00;;;;5087788;28;20202;-80
2021/03/14 07:19:16;;;;;;;2.28;0.60;;;;;12.00;100496.00;;;;5086258;28;20664;-80
2021/03/14 07:21:43;;;;;;;2.92;1.10;;;;;12.00;100501.00;;;;5083084;28;20203;-79
2021/03/14 07:24:14;;;;;;;2.35;0.80;;;;;12.10;100497.00;;;;5078263;28;20195;-79
2021/03/14 07:26:45;;;;;;;2.08;0.77;;;;;12.10;100512.00;;;;5073586;28;20217;-79
2021/03/14 07:29:13;;;;;;;3.58;0.77;;;;;12.10;100515.00;;;;5077737;28;20214;-79
2021/03/14 07:31:40;;;;;;;2.60;1.40;;;;;12.20;100521.00;;;;5074985;28;20210;-79
2021/03/14 07:34:07;;;;;;;1.60;0.93;;;;;12.20;100532.00;;;;5084668;28;20247;-79
2021/03/14 07:36:34;;;;;;;2.15;1.30;;;;;12.30;100535.00;;;;5085700;28;20198;-79
2021/03/14 07:39:02;;;;;;;5.43;1.35;;;;;12.30;100532.00;;;;5088143;28;20585;-78
2021/03/14 07:41:30;;;;;;;3.63;0.93;;;;;12.40;100545.00;;;;5083274;28;20199;-78
2021/03/14 07:43:57;;;;;;;2.55;1.50;;;;;12.40;100546.00;;;;5087217;28;20290;-78
2021/03/14 07:46:26;;;;;;;3.50;1.88;;;;;12.40;100548.00;;;;5071519;28;20202;-78
2021/03/14 07:48:53;;;;;;;3.78;1.40;;;;;12.50;100561.00;;;;5066779;28;20590;-78
2021/03/14 07:51:23;;;;;;;5.90;2.13;;;;;12.60;100559.00;;;;5067847;28;21022;-78
2021/03/14 07:53:51;;;;;;;3.83;1.58;;;;;12.60;100569.00;;;;5073263;28;20202;-79
2021/03/14 07:56:19;;;;;;;4.38;1.50;;;;;12.60;100575.00;;;;5083541;28;20218;-78
2021/03/14 07:58:54;;;;;;;5.57;1.88;;;;;12.60;100577.00;;;;5070693;28;20225;-79
2021/03/14 08:01:26;;;;;;;4.15;1.52;;;;;12.60;100586.00;;;;5073379;28;20242;-79
2021/03/14 08:03:53;;;;;;;8.02;1.80;;;;;12.70;100590.00;;;;5084835;28;20202;-78
2021/03/14 08:06:51;;;;;;;5.78;2.25;;;;;12.60;100590.00;;;;5081243;28;20190;-79
2021/03/14 08:09:41;;;;;;;4.82;1.77;;;;;12.60;100600.00;;;;5091925;28;20213;-79
2021/03/14 08:12:18;;;;;;;4.50;2.00;;;;;12.70;100606.00;;;;5071918;28;20290;-81
2021/03/14 08:14:46;;;;;;;5.38;1.73;;;;;12.80;100605.00;;;;5073505;28;20226;-79
2021/03/14 08:17:22;;;;;;;5.50;1.60;;;;;12.80;100615.00;;;;5085264;28;20195;-79
2021/03/14 08:19:51;;;;;;;4.35;1.40;;;;;12.90;100619.00;;;;5089588;28;20197;-79
2021/03/14 08:22:46;;;;;;;4.68;2.00;;;;;12.90;100625.00;;;;5092678;28;20205;-79
2021/03/14 08:25:25;;;;;;;3.50;1.75;;;;;12.90;100630.00;;;;5080699;28;20652;-79
2021/03/14 08:27:53;;;;;;;3.90;1.75;;;;;13.00;100636.00;;;;5075933;28;20217;-79
2021/03/14 08:30:43;;;;;;;11.20;1.58;;;;;13.00;100638.00;;;;5076992;28;20211;-79
2021/03/14 08:33:30;;;;;;;4.20;1.90;;;;;13.00;100638.00;;;;5073914;28;20234;-79
2021/03/14 08:36:00;;;;;;;4.85;1.70;;;;;13.10;100641.00;;;;5087219;28;20218;-79
2021/03/14 08:38:36;;;;;;;4.18;2.10;;;;;13.10;100651.00;;;;5087149;28;20271;-79
2021/03/14 08:41:29;;;;;;;10.27;1.90;;;;;13.10;100648.00;;;;5085952;28;20571;-80
2021/03/14 08:43:58;;;;;;;2.78;1.38;;;;;13.20;100648.00;;;;5077154;28;20237;-79
2021/03/14 08:47:05;;;;;;;5.28;2.03;;;;;13.10;100651.00;;;;5091046;28;20186;-79
2021/03/14 08:49:34;;;;;;;2.22;1.60;;;;;13.20;100655.00;;;;5074595;28;20195;-77
2021/03/14 08:52:01;;;;;;;6.57;1.80;;;;;13.20;100663.00;;;;5074787;28;20202;-78
2021/03/14 08:54:31;;;;;;;5.72;1.55;;;;;13.30;100665.00;;;;5085277;28;20199;-80
2021/03/14 08:56:59;;;;;;;7.50;2.10;;;;;13.30;100669.00;;;;5084097;28;20191;-81
2021/03/14 08:59:26;;;;;;;4.93;2.25;;;;;13.40;100677.00;;;;5091836;28;20194;-79
2021/03/14 09:01:57;;;;;;;5.03;1.98;;;;;13.40;100682.00;;;;5090695;28;20198;-80
2021/03/14 09:04:29;;;;;;;3.30;1.65;;;;;13.50;100680.00;;;;5091415;28;20327;-79
2021/03/14 09:07:05;;;;;;;3.90;1.65;;;;;13.50;100682.00;;;;5091055;28;20198;-79
2021/03/14 09:09:34;;;;;;;6.47;1.88;;;;;13.50;100683.00;;;;5091361;28;20247;-77
2021/03/14 09:12:05;;;;;;;3.90;1.58;;;;;13.50;100682.00;;;;5088700;28;20316;-76
2021/03/14 09:14:40;;;;;;;5.43;1.92;;;;;13.50;100681.00;;;;5081904;28;20195;-77
2021/03/14 09:17:10;;;;;;;8.10;2.25;;;;;13.60;100692.00;;;;5071357;28;20675;-77
2021/03/14 09:19:39;;;;;;;4.47;2.38;;;;;13.60;100689.00;;;;5079734;28;20212;-78
2021/03/14 09:22:11;;;;;;;2.05;1.23;;;;;13.60;100699.00;;;;5088519;28;20199;-79
2021/03/14 09:24:40;;;;;;;5.93;2.10;;;;;13.70;100700.00;;;;5080398;28;20546;-78
2021/03/14 09:27:14;;;;;;;3.03;1.50;;;;;13.70;100698.00;;;;5091686;28;20210;-77
2021/03/14 09:29:47;;;;;;;4.80;1.45;;;;;13.70;100707.00;;;;5091460;28;20214;-79
2021/03/14 09:32:28;;;;;;;5.03;1.88;;;;;13.70;100710.00;;;;5072282;28;20203;-77
2021/03/14 09:35:20;;;;;;;3.83;1.60;;;;;13.70;100722.00;;;;5084374;28;20206;-78
2021/03/14 09:37:50;;;;;;;2.58;1.30;;;;;13.80;100713.00;;;;5083372;28;20301;-75
2021/03/14 09:40:21;;;;;;;1.83;1.27;;;;;13.80;100720.00;;;;5090281;28;20202;-76
2021/03/14 09:42:49;;;;;;;4.00;1.08;;;;;13.90;100722.00;;;;5090850;28;20198;-75
2021/03/14 09:45:18;;;;;;;6.13;1.48;;;;;13.90;100726.00;;;;5086604;28;20194;-75
2021/03/14 09:48:00;;;;;;;3.30;1.13;;;;;13.90;100724.00;;;;5074231;28;20716;-75
2021/03/14 09:50:27;;;;;;;1.65;0.85;;;;;14.00;100730.00;;;;5070714;28;20203;-75
2021/03/14 09:52:59;;;;;;;3.08;0.90;;;;;14.00;100735.00;;;;5082296;28;20990;-75
2021/03/14 09:55:28;;;;;;;2.67;1.13;;;;;14.10;100740.00;;;;5087204;28;20340;-75
2021/03/14 09:57:55;;;;;;;1.48;0.75;;;;;14.10;100738.00;;;;5070197;28;20198;-77
2021/03/14 10:00:28;;;;;;;2.85;1.20;;;;;14.10;100745.00;;;;5075862;28;20199;-76
2021/03/14 10:02:58;;;;;;;2.95;0.93;;;;;14.20;100770.00;;;;5076451;28;20195;-80
2021/03/14 10:05:25;;;;;;;1.40;0.60;;;;;14.20;100765.00;;;;5080861;28;20201;-80
2021/03/14 10:07:54;;;;;;;1.35;0.80;;;;;14.20;100766.00;;;;5070611;28;20716;-79
2021/03/14 10:10:21;;;;;;;0.85;0.40;;;;;14.20;100773.00;;;;5087331;28;20220;-80
2021/03/14 10:12:48;;;;;;;3.20;0.50;;;;;14.20;100778.00;;;;5088968;28;20549;-80
2021/03/14 10:15:17;;;;;;;1.25;0.63;;;;;14.30;100770.00;;;;5079147;28;20219;-79
2021/03/14 10:17:45;;;;;;;1.40;0.20;;;;;14.30;100776.00;;;;5087035;28;20202;-80
2021/03/14 10:20:12;;;;;;;1.40;0.40;;;;;14.30;100776.00;;;;5077181;28;20206;-79
2021/03/14 10:22:39;;;;;;;1.27;0.30;;;;;14.40;100778.00;;;;5085626;28;20210;-78
2021/03/14 10:25:22;;;;;;;1.55;0.40;;;;;14.30;100777.00;;;;5080811;28;20195;-79
2021/03/14 10:27:50;;;;;;;3.97;0.40;;;;;14.30;100777.00;;;;5068554;28;21107;-79
2021/03/14 10:30:19;;;;;;;1.33;0.32;;;;;14.30;100780.00;;;;5081359;28;20218;-79
2021/03/14 10:32:48;;;;;;;0.88;0.40;;;;;14.30;100779.00;;;;5080937;28;20202;-79
2021/03/14 10:35:15;;;;;;;1.45;0.47;;;;;14.40;100782.00;;;;5080429;28;20222;-79
2021/03/14 10:37:42;;;;;;;2.03;0.60;;;;;14.50;100785.00;;;;5069449;28;20203;-78
2021/03/14 10:40:12;;;;;;;2.20;0.65;;;;;14.50;100786.00;;;;5075522;28;20199;-78
2021/03/14 10:42:41;;;;;;;0.93;0.60;;;;;14.60;100793.00;;;;5082612;28;20206;-79
2021/03/14 10:45:11;;;;;;;2.22;0.65;;;;;14.70;100790.00;;;;5075904;28;20199;-80
2021/03/14 10:47:39;;;;;;;3.10;1.17;;;;;14.70;100803.00;;;;5082667;28;20595;-80
2021/03/14 10:50:18;;;;;;;4.88;1.38;;;;;14.70;100800.00;;;;5076928;28;20186;-78
2021/03/14 10:52:45;;;;;;;2.78;0.95;;;;;14.70;100808.00;;;;5086694;28;20580;-79
2021/03/14 10:55:30;;;;;;;4.38;1.05;;;;;14.70;100814.00;;;;5077739;28;20225;-79
2021/03/14 10:58:08;;;;;;;3.17;1.40;;;;;14.70;100822.00;;;;5071542;28;20206;-78
2021/03/14 11:00:36;;;;;;;8.18;1.60;;;;;14.80;100826.00;;;;5082933;28;20193;-79
2021/03/14 11:03:11;;;;;;;2.97;1.52;;;;;14.90;100825.00;;;;5085974;28;20209;-79
2021/03/14 11:05:38;;;;;;;3.42;1.42;;;;;14.90;100833.00;;;;5076235;28;20194;-79
2021/03/14 11:08:05;;;;;;;4.07;1.15;;;;;15.00;100838.00;;;;5079570;28;20264;-79
2021/03/14 11:10:33;;;;;;;1.58;1.02;;;;;15.00;100844.00;;;;5087987;28;20198;-78
2021/03/14 11:13:13;;;;;;;3.28;1.33;;;;;15.00;100845.00;;;;5072396;28;20191;-82
2021/03/14 11:15:40;;;;;;;4.07;1.00;;;;;15.00;100849.00;;;;5076820;28;20218;-79
2021/03/14 11:18:06;;;;;;;1.92;0.80;;;;;15.00;100846.00;;;;5087470;28;20209;-80
2021/03/14 11:20:34;;;;;;;4.57;0.90;;;;;15.00;100851.00;;;;5087494;28;20562;-80
2021/03/14 11:23:01;;;;;;;2.35;0.80;;;;;15.00;100858.00;;;;5088900;28;20203;-82
2021/03/14 11:25:29;;;;;;;1.75;0.90;;;;;14.90;100860.00;;;;5087790;28;20206;-80
2021/03/14 11:27:58;;;;;;;2.88;0.65;;;;;14.90;100868.00;;;;5088793;28;20202;-81
2021/03/14 11:30:27;;;;;;;5.50;1.20;;;;;14.90;100868.00;;;;5081162;28;20210;-80
2021/03/14 11:32:54;;;;;;;4.40;1.00;;;;;14.90;100866.00;;;;5068396;28;20657;-81
2021/03/14 11:35:21;;;;;;;1.55;0.93;;;;;14.80;100862.00;;;;5068995;28;20279;-80
2021/03/14 11:37:48;;;;;;;3.05;0.80;;;;;14.80;100873.00;;;;5085037;28;20205;-80
2021/03/14 11:40:15;;;;;;;2.25;0.88;;;;;14.80;100872.00;;;;5072926;28;20234;-83
2021/03/14 11:42:42;;;;;;;4.85;1.10;;;;;14.80;100871.00;;;;5087823;28;20680;-81
2021/03/14 11:45:12;;;;;;;6.43;1.05;;;;;14.80;100885.00;;;;5086807;28;21039;-81
2021/03/14 11:47:38;;;;;;;6.75;1.05;;;;;14.90;100883.00;;;;5081264;28;20218;-83
2021/03/14 11:50:06;;;;;;;2.08;1.30;;;;;14.90;100875.00;;;;5068796;28;20202;-79
2021/03/14 11:52:33;;;;;;;3.45;0.95;;;;;14.90;100880.00;;;;5072224;28;20711;-78
2021/03/14 11:55:00;;;;;;;4.97;1.10;;;;;14.90;100887.00;;;;5068305;28;20275;-79
2021/03/14 11:57:27;;;;;;;4.10;1.70;;;;;14.90;100892.00;;;;5083657;28;20208;-80
2021/03/14 11:59:56;;;;;;;2.97;1.05;;;;;14.90;100896.00;;;;5082023;28;20225;-78
2021/03/14 12:02:24;;;;;;;4.20;0.70;;;;;14.80;100891.00;;;;5069011;28;20337;-79
2021/03/14 12:04:51;;;;;;;2.75;0.82;;;;;14.80;100894.00;;;;5083150;28;20187;-80
2021/03/14 12:07:18;;;;;;;3.33;1.75;;;;;14.80;100895.00;;;;5086753;28;20206;-79
2021/03/14 12:09:44;;;;;;;2.35;1.17;;;;;14.80;100886.00;;;;5082817;28;20198;-79
2021/03/14 12:12:11;;;;;;;3.08;1.20;;;;;14.80;100900.00;;;;5088044;28;20190;-80
2021/03/14 12:14:40;;;;;;;6.25;1.17;;;;;14.80;100898.00;;;;5072712;28;20720;-77
2021/03/14 12:17:07;;;;;;;2.85;0.98;;;;;14.80;100902.00;;;;5079880;28;20191;-77
2021/03/14 12:19:34;;;;;;;1.48;0.63;;;;;14.80;100906.00;;;;5083350;28;20197;-77